BSGM7: Big Sugar Creek near Powell, MO

Data processed at Tue May 21 2019 22:30


All information presented herein is the property of the government of the United States of America and may be revised or deleted at any time without prior notice.
Dissemination of this information without the expressed written consent of the Public Affairs Office, Tulsa District U.S. Army Corps of Engineers is strictly prohibited.
These data are gathered electronically and, as presented, have not undergone any form of quality control. These data are not guaranteed to be valid or correct.
Go to home page.
Go to station list.
Go to home page.

Downstream station:


Previous Day
Next Day
Current Day
    
SHEF ID:       BSGM7     Big Sugar Creek near Powell, MO
STATION TYPE:  

               PRECIP     STAGE  RIV-FLOW  BAT-LOAD
                   in        ft       cfs      volt
              Ccp-Rev   Ccp-Rev   Ccp-Rev   Ccp-Rev
(US/Central)
05/21 00:00      0.64      5.37       248     12.65
05/21 01:00      0.75      5.73       350     12.65
05/21 02:00      0.05      6.16       483     12.60
05/21 03:00      0.02      6.46       589     12.60
05/21 04:00      0.02      7.19       892     12.54
05/21 05:00      0.00      8.08      1348     12.54
05/21 06:00      0.00      8.98      1933     12.54
05/21 07:00      0.00      9.45      2294     12.48
05/21 08:00      0.00      9.30      2176     12.65
05/21 09:00      0.00      8.87      1853     13.53
05/21 10:00      0.00      8.51      1603     13.07
05/21 11:00      0.15      8.23      1434     12.77
05/21 12:00      0.80      8.26      1452     12.71
05/21 13:00      0.09      8.56      1636     13.36
05/21 14:00      0.04      8.88      1860     12.89
05/21 15:00      0.04      9.96      2722     12.89
05/21 16:00      0.02     10.57      3284     12.77
05/21 17:00      0.00     10.70      3410     13.18
05/21 18:00      0.00     10.61      3322     13.18
05/21 19:00      0.00     10.56      3274     12.95
05/21 20:00      0.00     10.42      3141     12.89
05/21 21:00      0.00     10.12      2864     12.83
05/21 22:00      0.00      9.80      2584     12.77
05/21 23:00      ----      ----      ----      ----